Time;durP1;ratioP1;P1;durP2;ratioP2;P2;SDS_P1;SDS_P2;PMS_P1;PMS_P2;Temp;Humidity;BMP_temperature;BMP_pressure;BME280_temperature;BME280_humidity;BME280_pressure;Samples;Min_cycle;Max_cycle;Signal;HPM_P1;HPM_P2
2022/02/26 07:01:42;;;;;;;24.88;4.55;;;;;;;;;;5238782;23;20533;-84
2022/02/26 07:04:09;;;;;;;25.93;4.87;;;;;;;;;;4858724;29;20585;-84
2022/02/26 07:06:35;;;;;;;23.80;4.85;;;;;;;;;;4858872;29;20306;-83
2022/02/26 07:09:02;;;;;;;25.02;4.63;;;;;;;;;;4859200;29;20081;-84
2022/02/26 07:11:28;;;;;;;17.77;4.50;;;;;;;;;;4841941;29;20430;-84
2022/02/26 07:13:55;;;;;;;24.48;4.28;;;;;;;;;;4859870;29;20069;-81
2022/02/26 07:16:21;;;;;;;22.73;4.05;;;;;;;;;;4859459;29;20115;-83
2022/02/26 07:18:48;;;;;;;27.98;4.40;;;;;;;;;;4857440;29;20097;-83
2022/02/26 07:21:15;;;;;;;26.05;4.45;;;;;;;;;;4857902;29;20570;-83
2022/02/26 07:23:41;;;;;;;25.33;4.97;;;;;;;;;;4861631;29;20121;-83
2022/02/26 07:26:08;;;;;;;23.55;4.65;;;;;;;;;;4858816;29;20089;-83
2022/02/26 07:28:35;;;;;;;17.98;4.18;;;;;;;;;;4860159;29;20094;-83
2022/02/26 07:31:01;;;;;;;26.13;4.35;;;;;;;;;;4859914;29;20494;-82
2022/02/26 07:33:28;;;;;;;33.08;5.95;;;;;;;;;;4862544;29;20514;-82
2022/02/26 07:35:55;;;;;;;28.90;4.38;;;;;;;;;;4858324;29;20057;-83
2022/02/26 07:38:21;;;;;;;22.30;4.40;;;;;;;;;;4857667;29;20188;-84
2022/02/26 07:40:48;;;;;;;24.23;4.00;;;;;;;;;;4860324;29;20057;-82
2022/02/26 07:43:15;;;;;;;34.30;5.15;;;;;;;;;;4842821;29;20077;-82
2022/02/26 07:45:41;;;;;;;26.83;4.25;;;;;;;;;;4857747;29;20049;-83
2022/02/26 07:48:08;;;;;;;17.77;4.25;;;;;;;;;;4857626;29;20057;-84
2022/02/26 07:50:35;;;;;;;28.92;5.03;;;;;;;;;;4865271;29;20049;-83
2022/02/26 07:53:02;;;;;;;23.05;5.32;;;;;;;;;;4868345;29;20087;-82
2022/02/26 07:55:30;;;;;;;43.13;5.53;;;;;;;;;;4864897;29;20046;-83
2022/02/26 07:57:56;;;;;;;33.05;4.60;;;;;;;;;;4857618;29;20121;-82
2022/02/26 08:00:23;;;;;;;26.10;5.20;;;;;;;;;;4856284;29;20073;-83
2022/02/26 08:02:50;;;;;;;29.50;4.40;;;;;;;;;;4857535;29;20533;-83
2022/02/26 08:05:17;;;;;;;30.27;4.15;;;;;;;;;;4856858;29;20049;-85
2022/02/26 08:07:45;;;;;;;28.70;6.05;;;;;;;;;;4857953;29;20056;-84
2022/02/26 08:10:12;;;;;;;22.90;4.75;;;;;;;;;;4857553;29;20050;-85
2022/02/26 08:12:40;;;;;;;27.58;4.93;;;;;;;;;;4858882;29;20049;-85
2022/02/26 08:15:07;;;;;;;42.53;6.00;;;;;;;;;;4857572;29;20514;-84
2022/02/26 08:17:34;;;;;;;19.90;3.83;;;;;;;;;;4842181;29;20059;-87
2022/02/26 08:20:02;;;;;;;25.42;4.85;;;;;;;;;;4858663;29;19932;-87
2022/02/26 08:22:29;;;;;;;29.58;4.78;;;;;;;;;;4857146;29;20057;-87
2022/02/26 08:24:55;;;;;;;21.80;3.95;;;;;;;;;;4847070;29;20094;-87
2022/02/26 08:27:22;;;;;;;25.70;5.13;;;;;;;;;;4858597;29;20463;-88
2022/02/26 08:29:49;;;;;;;27.42;4.63;;;;;;;;;;4842739;29;20053;-88
2022/02/26 08:32:15;;;;;;;34.17;5.07;;;;;;;;;;4858108;29;20054;-87
2022/02/26 08:34:43;;;;;;;36.38;4.97;;;;;;;;;;4858612;29;20448;-87
2022/02/26 08:37:09;;;;;;;30.95;4.32;;;;;;;;;;4858950;29;20077;-87
2022/02/26 08:39:36;;;;;;;32.20;5.28;;;;;;;;;;4844865;29;20499;-87
2022/02/26 08:42:04;;;;;;;22.38;4.43;;;;;;;;;;4859035;29;20533;-87
2022/02/26 08:44:31;;;;;;;23.67;4.40;;;;;;;;;;4858542;29;20061;-88
2022/02/26 08:46:59;;;;;;;26.42;4.55;;;;;;;;;;4858797;29;20046;-86
2022/02/26 08:49:26;;;;;;;27.58;4.50;;;;;;;;;;4839815;29;20102;-87
2022/02/26 08:51:54;;;;;;;23.35;4.78;;;;;;;;;;4859035;29;20055;-87
2022/02/26 08:54:20;;;;;;;29.10;5.38;;;;;;;;;;4857817;29;20129;-87
2022/02/26 08:56:48;;;;;;;27.85;5.00;;;;;;;;;;4858851;29;20607;-88
2022/02/26 08:59:15;;;;;;;29.10;4.15;;;;;;;;;;4859582;29;20053;-88
2022/02/26 09:01:42;;;;;;;34.53;4.57;;;;;;;;;;4838570;29;20073;-87
2022/02/26 09:04:09;;;;;;;25.35;4.35;;;;;;;;;;4839210;29;20114;-87
2022/02/26 09:06:36;;;;;;;25.98;4.45;;;;;;;;;;4839392;29;20086;-85
2022/02/26 09:09:07;;;;;;;17.17;3.40;;;;;;;;;;4835584;29;20058;-85
2022/02/26 09:11:36;;;;;;;24.83;5.50;;;;;;;;;;4839468;29;20050;-86
2022/02/26 09:14:04;;;;;;;35.03;4.18;;;;;;;;;;4838025;29;20053;-84
2022/02/26 09:16:31;;;;;;;20.55;4.65;;;;;;;;;;4839306;29;20058;-86
2022/02/26 09:18:58;;;;;;;28.65;5.28;;;;;;;;;;4839767;29;20050;-86
2022/02/26 09:21:25;;;;;;;23.08;5.85;;;;;;;;;;4832426;29;20103;-86
2022/02/26 09:23:52;;;;;;;28.65;5.82;;;;;;;;;;4845147;29;20054;-86
2022/02/26 09:26:19;;;;;;;23.20;4.70;;;;;;;;;;4844532;29;20061;-87
2022/02/26 09:28:46;;;;;;;23.15;5.32;;;;;;;;;;4845225;29;20066;-86
2022/02/26 09:31:14;;;;;;;27.42;4.72;;;;;;;;;;4835732;29;20159;-86
2022/02/26 09:33:41;;;;;;;26.17;4.65;;;;;;;;;;4848344;29;20054;-86
2022/02/26 09:36:09;;;;;;;21.67;5.07;;;;;;;;;;4846206;29;20102;-86
2022/02/26 09:38:38;;;;;;;32.35;5.97;;;;;;;;;;4846427;29;20106;-87
2022/02/26 09:41:05;;;;;;;23.60;4.97;;;;;;;;;;4841619;29;20114;-85
2022/02/26 09:43:33;;;;;;;21.83;4.55;;;;;;;;;;4850492;29;20053;-85
2022/02/26 09:46:02;;;;;;;26.07;5.10;;;;;;;;;;4850927;29;20130;-86
2022/02/26 09:48:30;;;;;;;23.55;4.22;;;;;;;;;;4851571;29;20313;-85
2022/02/26 09:50:57;;;;;;;26.38;5.05;;;;;;;;;;4839978;29;20074;-86
2022/02/26 09:53:23;;;;;;;24.70;4.55;;;;;;;;;;4838965;29;20106;-85
2022/02/26 09:55:51;;;;;;;20.92;4.38;;;;;;;;;;4843417;29;20081;-86
2022/02/26 09:58:18;;;;;;;23.13;4.00;;;;;;;;;;4846175;29;20133;-86
2022/02/26 10:00:46;;;;;;;21.58;4.25;;;;;;;;;;4856101;29;20117;-84
2022/02/26 10:03:33;;;;;;;18.45;3.95;;;;;;;;;;4864844;29;20086;-84
2022/02/26 10:06:08;;;;;;;18.00;3.90;;;;;;;;;;4865452;29;20106;-87
2022/02/26 10:08:40;;;;;;;30.48;5.25;;;;;;;;;;4863087;29;20113;-85
2022/02/26 10:11:29;;;;;;;30.83;4.15;;;;;;;;;;4858592;29;20049;-85
2022/02/26 10:14:04;;;;;;;23.83;4.28;;;;;;;;;;4863803;29;20060;-85
2022/02/26 10:16:47;;;;;;;30.67;4.80;;;;;;;;;;4864433;29;20053;-86
2022/02/26 10:19:20;;;;;;;21.08;4.25;;;;;;;;;;4868528;29;20052;-84
2022/02/26 10:21:46;;;;;;;19.05;3.90;;;;;;;;;;4853690;29;20140;-86
2022/02/26 10:24:14;;;;;;;18.25;4.45;;;;;;;;;;4862698;29;20057;-85
2022/02/26 10:26:44;;;;;;;23.27;4.68;;;;;;;;;;4868548;29;20491;-86
2022/02/26 10:29:12;;;;;;;19.60;3.50;;;;;;;;;;4865620;29;20088;-83
2022/02/26 10:31:46;;;;;;;23.25;4.68;;;;;;;;;;4852273;29;20105;-86
2022/02/26 10:34:43;;;;;;;23.05;4.20;;;;;;;;;;4859478;29;20128;-86
2022/02/26 10:37:14;;;;;;;24.05;4.40;;;;;;;;;;4825072;29;20518;-86
2022/02/26 10:39:43;;;;;;;14.38;3.40;;;;;;;;;;4855559;29;20049;-86
2022/02/26 10:42:31;;;;;;;19.45;3.97;;;;;;;;;;4843113;29;20057;-85
2022/02/26 10:45:12;;;;;;;15.02;3.40;;;;;;;;;;4861570;29;20105;-86
2022/02/26 10:47:44;;;;;;;22.15;3.42;;;;;;;;;;4862835;29;20409;-84
2022/02/26 10:50:19;;;;;;;20.55;3.72;;;;;;;;;;4857889;29;20049;-85
2022/02/26 10:53:02;;;;;;;20.38;3.85;;;;;;;;;;4848785;29;20200;-84
2022/02/26 10:55:57;;;;;;;22.77;3.47;;;;;;;;;;4852829;29;20767;-83
2022/02/26 10:58:25;;;;;;;20.20;3.47;;;;;;;;;;4860939;29;20171;-86
2022/02/26 11:01:03;;;;;;;13.27;2.80;;;;;;;;;;4842909;29;20090;-84
2022/02/26 11:03:30;;;;;;;17.40;3.17;;;;;;;;;;4845551;29;20056;-85
2022/02/26 11:05:57;;;;;;;17.83;3.30;;;;;;;;;;4848519;29;20548;-85
2022/02/26 11:08:24;;;;;;;18.73;3.63;;;;;;;;;;4840749;29;20057;-87
2022/02/26 11:10:53;;;;;;;23.27;3.60;;;;;;;;;;4851735;29;20094;-86
2022/02/26 11:13:21;;;;;;;22.00;4.00;;;;;;;;;;4845971;29;20130;-87
2022/02/26 11:15:51;;;;;;;17.50;3.00;;;;;;;;;;4847818;29;20046;-87
2022/02/26 11:18:19;;;;;;;12.30;2.90;;;;;;;;;;4842312;29;20045;-88
2022/02/26 11:20:46;;;;;;;22.33;4.15;;;;;;;;;;4848924;29;20109;-86
2022/02/26 11:23:13;;;;;;;18.90;3.67;;;;;;;;;;4842059;29;20262;-87
2022/02/26 11:25:40;;;;;;;20.70;3.28;;;;;;;;;;4851322;29;20140;-86
2022/02/26 11:28:09;;;;;;;22.17;3.60;;;;;;;;;;4842234;29;20119;-84
2022/02/26 11:30:42;;;;;;;22.48;3.50;;;;;;;;;;4842150;29;20068;-85
2022/02/26 11:33:09;;;;;;;22.48;3.35;;;;;;;;;;4834713;29;20432;-83
2022/02/26 11:35:58;;;;;;;17.02;3.28;;;;;;;;;;4847494;29;20053;-84
2022/02/26 11:38:26;;;;;;;16.42;3.13;;;;;;;;;;4842922;29;20482;-85
2022/02/26 11:41:25;;;;;;;17.88;3.05;;;;;;;;;;4841362;29;20114;-83
2022/02/26 11:43:52;;;;;;;16.27;3.47;;;;;;;;;;4838768;29;20427;-84
2022/02/26 11:46:21;;;;;;;17.88;3.33;;;;;;;;;;4838966;29;20519;-84
2022/02/26 11:48:49;;;;;;;18.20;2.80;;;;;;;;;;4843647;29;20046;-82
2022/02/26 11:51:18;;;;;;;17.35;3.28;;;;;;;;;;4840681;29;20050;-85
2022/02/26 11:53:46;;;;;;;20.88;3.33;;;;;;;;;;4839984;29;20611;-87
2022/02/26 11:56:14;;;;;;;20.13;3.43;;;;;;;;;;4837499;29;20400;-85
2022/02/26 11:58:44;;;;;;;20.55;4.20;;;;;;;;;;4837474;29;20359;-84
2022/02/26 12:01:15;;;;;;;15.75;2.83;;;;;;;;;;4804557;29;1144338;-85
2022/02/26 12:03:41;;;;;;;17.45;3.58;;;;;;;;;;4859732;29;20061;-83
2022/02/26 12:06:08;;;;;;;15.93;2.65;;;;;;;;;;4856669;29;20141;-84
2022/02/26 12:08:37;;;;;;;14.05;2.60;;;;;;;;;;4857658;29;20083;-83
2022/02/26 12:11:06;;;;;;;17.73;2.80;;;;;;;;;;4846055;29;20057;-85
2022/02/26 12:13:35;;;;;;;19.70;3.85;;;;;;;;;;4854990;29;20054;-83
2022/02/26 12:16:22;;;;;;;15.88;3.22;;;;;;;;;;4862202;29;20053;-83
2022/02/26 12:18:57;;;;;;;16.83;2.80;;;;;;;;;;4851838;29;20053;-84
2022/02/26 12:21:29;;;;;;;19.33;2.50;;;;;;;;;;4844213;29;20081;-85
2022/02/26 12:24:02;;;;;;;17.13;2.58;;;;;;;;;;4854501;29;20160;-84
2022/02/26 12:27:08;;;;;;;12.75;2.08;;;;;;;;;;4862756;29;20057;-84
2022/02/26 12:29:44;;;;;;;14.80;2.58;;;;;;;;;;4754744;30;20078;-85
2022/02/26 12:32:18;;;;;;;20.63;3.13;;;;;;;;;;4763593;29;20055;-84
2022/02/26 12:34:51;;;;;;;14.15;2.70;;;;;;;;;;4761133;30;20089;-85
2022/02/26 12:37:25;;;;;;;16.52;3.20;;;;;;;;;;4760731;30;20101;-83
2022/02/26 12:39:56;;;;;;;16.00;2.72;;;;;;;;;;4758686;30;20055;-83
2022/02/26 12:42:25;;;;;;;18.73;2.50;;;;;;;;;;4749758;29;20086;-84
2022/02/26 12:44:56;;;;;;;15.82;3.05;;;;;;;;;;4753971;30;20063;-83
2022/02/26 12:47:24;;;;;;;15.52;2.60;;;;;;;;;;4760378;30;22769;-83
2022/02/26 12:49:52;;;;;;;16.07;2.30;;;;;;;;;;4768335;29;20124;-84
2022/02/26 12:52:29;;;;;;;18.25;2.40;;;;;;;;;;4765224;29;20279;-84
2022/02/26 12:54:56;;;;;;;18.90;3.05;;;;;;;;;;4765473;29;20051;-84
2022/02/26 12:57:34;;;;;;;15.80;3.17;;;;;;;;;;4760634;30;20079;-83
2022/02/26 13:00:01;;;;;;;19.95;3.05;;;;;;;;;;4749027;30;20594;-84
2022/02/26 13:02:27;;;;;;;24.10;3.35;;;;;;;;;;4768844;29;20116;-87
2022/02/26 13:05:02;;;;;;;18.00;2.63;;;;;;;;;;4792973;29;20056;-88
2022/02/26 13:07:29;;;;;;;22.27;3.50;;;;;;;;;;4835108;29;20068;-86
2022/02/26 13:09:57;;;;;;;15.07;2.92;;;;;;;;;;4845918;29;20463;-87
2022/02/26 13:12:28;;;;;;;14.60;2.83;;;;;;;;;;4841002;29;20061;-87
2022/02/26 13:14:59;;;;;;;13.68;2.75;;;;;;;;;;4839371;29;20050;-86
2022/02/26 13:17:28;;;;;;;13.50;2.78;;;;;;;;;;4834483;29;20042;-86
2022/02/26 13:19:56;;;;;;;13.73;2.83;;;;;;;;;;4840259;29;20054;-86
2022/02/26 13:22:23;;;;;;;17.00;3.47;;;;;;;;;;4845984;29;20081;-88
2022/02/26 13:24:50;;;;;;;22.02;3.45;;;;;;;;;;4835334;29;20054;-83
2022/02/26 13:27:21;;;;;;;15.43;3.33;;;;;;;;;;4843932;29;20053;-83
2022/02/26 13:29:51;;;;;;;18.70;2.92;;;;;;;;;;4843421;29;20049;-83
2022/02/26 13:32:24;;;;;;;14.13;2.97;;;;;;;;;;4840250;29;20086;-84
2022/02/26 13:34:58;;;;;;;10.77;2.50;;;;;;;;;;4838495;29;20061;-84
2022/02/26 13:37:27;;;;;;;15.90;3.33;;;;;;;;;;4838445;29;20064;-84
2022/02/26 13:39:55;;;;;;;16.65;2.75;;;;;;;;;;4847334;29;20133;-85
2022/02/26 13:42:27;;;;;;;11.45;2.42;;;;;;;;;;4837331;29;20826;-86
2022/02/26 13:45:02;;;;;;;13.35;2.72;;;;;;;;;;4844707;29;20062;-86
2022/02/26 13:47:30;;;;;;;12.65;2.20;;;;;;;;;;4841098;29;20050;-85
2022/02/26 13:49:58;;;;;;;13.98;2.70;;;;;;;;;;4837547;29;20075;-86
2022/02/26 13:52:28;;;;;;;14.07;2.17;;;;;;;;;;4839418;29;20106;-87
2022/02/26 13:54:58;;;;;;;14.27;3.22;;;;;;;;;;4848536;29;20042;-85
2022/02/26 13:57:31;;;;;;;14.45;2.20;;;;;;;;;;4841189;29;20046;-84
2022/02/26 14:00:14;;;;;;;15.40;3.13;;;;;;;;;;4842395;29;20053;-84
2022/02/26 14:02:55;;;;;;;12.27;2.35;;;;;;;;;;4835738;29;20127;-84
2022/02/26 14:05:28;;;;;;;16.13;2.92;;;;;;;;;;4835146;29;20053;-84
2022/02/26 14:07:55;;;;;;;11.63;2.20;;;;;;;;;;4840652;29;20053;-86
2022/02/26 14:10:23;;;;;;;14.70;2.60;;;;;;;;;;4837322;29;20050;-85
2022/02/26 14:12:56;;;;;;;9.23;2.30;;;;;;;;;;4834325;29;20114;-86
2022/02/26 14:15:23;;;;;;;13.73;2.65;;;;;;;;;;4836066;29;20057;-86
2022/02/26 14:17:55;;;;;;;13.23;2.75;;;;;;;;;;4836295;29;20481;-85
2022/02/26 14:20:33;;;;;;;14.93;2.50;;;;;;;;;;4839051;29;20106;-85
2022/02/26 14:23:02;;;;;;;24.13;4.20;;;;;;;;;;4853408;29;20468;-85
2022/02/26 14:25:31;;;;;;;14.27;2.92;;;;;;;;;;4842878;29;20060;-84
2022/02/26 14:27:58;;;;;;;20.15;3.30;;;;;;;;;;4847987;29;20051;-85
2022/02/26 14:30:24;;;;;;;14.73;2.72;;;;;;;;;;4838380;29;20118;-84
2022/02/26 14:32:54;;;;;;;23.05;3.38;;;;;;;;;;4847159;29;20053;-84
2022/02/26 14:35:23;;;;;;;21.52;3.88;;;;;;;;;;4837415;29;20102;-83
2022/02/26 14:37:50;;;;;;;;;;;;;;;;;;4844751;29;20129;-84
2022/02/26 14:40:23;;;;;;;19.55;3.55;;;;;;;;;;4837969;29;20799;-85
2022/02/26 14:42:51;;;;;;;18.23;3.17;;;;;;;;;;4843433;29;20113;-84
2022/02/26 14:45:19;;;;;;;;;;;;;;;;;;4844866;29;20054;-85
2022/02/26 14:47:46;;;;;;;16.60;3.58;;;;;;;;;;4838863;29;19991;-85
2022/02/26 14:50:14;;;;;;;20.50;3.65;;;;;;;;;;4837540;29;20567;-85
2022/02/26 14:52:42;;;;;;;11.88;2.90;;;;;;;;;;4836808;29;20414;-83
2022/02/26 14:55:11;;;;;;;18.98;3.58;;;;;;;;;;4848200;29;20178;-84
2022/02/26 14:57:38;;;;;;;16.02;3.05;;;;;;;;;;4842738;29;20058;-84
2022/02/26 15:00:06;;;;;;;19.05;3.22;;;;;;;;;;4838003;29;20110;-84
2022/02/26 15:02:33;;;;;;;18.55;3.35;;;;;;;;;;4859159;29;20049;-84
2022/02/26 15:04:59;;;;;;;18.10;3.58;;;;;;;;;;4856762;29;20049;-85
2022/02/26 15:07:28;;;;;;;16.25;3.08;;;;;;;;;;4864262;29;20113;-83
2022/02/26 15:09:55;;;;;;;16.58;3.50;;;;;;;;;;4859006;29;20049;-83
2022/02/26 15:12:22;;;;;;;13.82;3.22;;;;;;;;;;4859547;29;20081;-83
2022/02/26 15:14:49;;;;;;;12.95;2.67;;;;;;;;;;4850448;29;20110;-84
2022/02/26 15:17:18;;;;;;;19.27;3.53;;;;;;;;;;4860766;29;20045;-87
2022/02/26 15:19:45;;;;;;;20.80;3.58;;;;;;;;;;4860324;29;20133;-85
2022/02/26 15:22:13;;;;;;;12.30;3.13;;;;;;;;;;4855934;29;20483;-85
2022/02/26 15:24:39;;;;;;;13.30;2.97;;;;;;;;;;4865657;29;20049;-83
2022/02/26 15:27:06;;;;;;;14.20;2.75;;;;;;;;;;4855574;29;20050;-86
2022/02/26 15:29:34;;;;;;;15.75;2.80;;;;;;;;;;4837944;29;20111;-83
2022/02/26 15:32:01;;;;;;;12.13;2.70;;;;;;;;;;4859576;29;20050;-84
2022/02/26 15:34:28;;;;;;;16.27;3.47;;;;;;;;;;4840137;29;20278;-84
2022/02/26 15:36:54;;;;;;;13.98;2.72;;;;;;;;;;4869291;29;20077;-85
2022/02/26 15:39:21;;;;;;;17.60;3.33;;;;;;;;;;4871786;29;20060;-84
2022/02/26 15:41:49;;;;;;;11.07;2.95;;;;;;;;;;4841540;29;20089;-84
2022/02/26 15:44:18;;;;;;;12.43;2.80;;;;;;;;;;4856028;29;20121;-84
2022/02/26 15:46:45;;;;;;;14.13;3.22;;;;;;;;;;4862925;29;20056;-86
2022/02/26 15:49:12;;;;;;;13.32;3.10;;;;;;;;;;4839831;29;20149;-85
2022/02/26 15:51:39;;;;;;;19.25;3.30;;;;;;;;;;4861391;29;20073;-85
2022/02/26 15:54:06;;;;;;;18.08;3.28;;;;;;;;;;4862199;29;20053;-85
2022/02/26 15:56:33;;;;;;;11.02;2.45;;;;;;;;;;4838724;29;20045;-87
2022/02/26 15:59:00;;;;;;;13.48;2.75;;;;;;;;;;4864075;29;20137;-85
2022/02/26 16:01:26;;;;;;;12.65;3.72;;;;;;;;;;4843690;29;20502;-86
2022/02/26 16:03:55;;;;;;;;;;;;;;;;;;4850577;29;20049;-87
2022/02/26 16:06:21;;;;;;;16.50;3.25;;;;;;;;;;4848986;29;19932;-87
2022/02/26 16:08:48;;;;;;;17.10;3.53;;;;;;;;;;4860166;29;20080;-86
2022/02/26 16:11:15;;;;;;;10.02;3.03;;;;;;;;;;4859702;29;20057;-85
2022/02/26 16:13:41;;;;;;;15.90;3.50;;;;;;;;;;4860550;29;20061;-86
2022/02/26 16:16:08;;;;;;;11.82;2.75;;;;;;;;;;4854594;29;20080;-83
2022/02/26 16:18:35;;;;;;;10.77;2.83;;;;;;;;;;4854144;29;20057;-86
2022/02/26 16:21:02;;;;;;;17.15;3.47;;;;;;;;;;4854166;29;20088;-85
2022/02/26 16:23:29;;;;;;;15.13;3.05;;;;;;;;;;4837313;29;20050;-86
2022/02/26 16:25:55;;;;;;;13.23;3.42;;;;;;;;;;4854128;29;20099;-86
2022/02/26 16:28:24;;;;;;;13.00;3.00;;;;;;;;;;4862621;29;20073;-86
2022/02/26 16:30:54;;;;;;;13.68;2.95;;;;;;;;;;4846076;29;20113;-86
2022/02/26 16:33:22;;;;;;;14.35;3.00;;;;;;;;;;4850791;29;20581;-87
2022/02/26 16:35:49;;;;;;;17.15;3.35;;;;;;;;;;4857735;29;20483;-89
2022/02/26 16:38:15;;;;;;;13.57;3.40;;;;;;;;;;4853374;29;20121;-88
2022/02/26 16:40:42;;;;;;;14.52;3.53;;;;;;;;;;4847525;29;20073;-87
2022/02/26 16:43:09;;;;;;;12.57;2.90;;;;;;;;;;4863600;29;20077;-88
2022/02/26 16:45:35;;;;;;;14.20;3.13;;;;;;;;;;4836505;29;20049;-87
2022/02/26 16:48:02;;;;;;;15.15;3.03;;;;;;;;;;4854722;29;20121;-88
2022/02/26 16:50:28;;;;;;;13.48;3.45;;;;;;;;;;4839284;29;20482;-88
2022/02/26 16:52:55;;;;;;;12.85;3.60;;;;;;;;;;4859399;29;20057;-86
2022/02/26 16:55:21;;;;;;;13.40;2.63;;;;;;;;;;4840966;29;20577;-87
2022/02/26 16:57:48;;;;;;;16.10;3.15;;;;;;;;;;4853888;29;20091;-85
2022/02/26 17:00:15;;;;;;;15.77;2.90;;;;;;;;;;4843006;29;20181;-87
2022/02/26 17:02:42;;;;;;;12.65;3.17;;;;;;;;;;4865071;29;20060;-87
2022/02/26 17:05:11;;;;;;;11.50;3.50;;;;;;;;;;4859761;29;20585;-86
2022/02/26 17:07:38;;;;;;;18.20;3.08;;;;;;;;;;4860209;29;20048;-87
2022/02/26 17:10:12;;;;;;;17.27;3.72;;;;;;;;;;4859517;29;20049;-87
2022/02/26 17:12:39;;;;;;;9.30;3.75;;;;;;;;;;4867787;29;20100;-86
2022/02/26 17:15:06;;;;;;;18.08;3.83;;;;;;;;;;4870701;29;20061;-85
2022/02/26 17:17:32;;;;;;;20.92;3.97;;;;;;;;;;4854314;29;20132;-86
2022/02/26 17:19:59;;;;;;;14.13;2.70;;;;;;;;;;4853664;29;20494;-85
2022/02/26 17:22:26;;;;;;;16.45;4.65;;;;;;;;;;4863982;29;20506;-86
2022/02/26 17:24:54;;;;;;;12.73;3.65;;;;;;;;;;4866458;29;20073;-86
2022/02/26 17:27:21;;;;;;;12.63;3.25;;;;;;;;;;4853614;29;20061;-87
2022/02/26 17:29:48;;;;;;;10.02;2.88;;;;;;;;;;4864819;29;20049;-86
2022/02/26 17:32:18;;;;;;;12.05;3.35;;;;;;;;;;4866337;29;20349;-85
2022/02/26 17:34:44;;;;;;;18.75;6.38;;;;;;;;;;4860974;29;20057;-86
2022/02/26 17:37:11;;;;;;;15.90;3.83;;;;;;;;;;4856111;29;20491;-86
2022/02/26 17:39:38;;;;;;;12.27;3.40;;;;;;;;;;4863783;29;20057;-86
2022/02/26 17:42:05;;;;;;;13.50;3.10;;;;;;;;;;4855226;29;20092;-84
2022/02/26 17:44:32;;;;;;;9.45;3.72;;;;;;;;;;4858991;29;20077;-86
2022/02/26 17:46:59;;;;;;;16.58;4.85;;;;;;;;;;4862601;29;20076;-86
2022/02/26 17:49:26;;;;;;;14.80;3.85;;;;;;;;;;4861457;29;20054;-85
2022/02/26 17:51:53;;;;;;;8.85;3.20;;;;;;;;;;4853106;29;20122;-86
2022/02/26 17:54:19;;;;;;;12.88;3.42;;;;;;;;;;4856413;29;20074;-86
2022/02/26 17:56:46;;;;;;;16.30;6.30;;;;;;;;;;4857622;29;20077;-86
2022/02/26 17:59:13;;;;;;;15.23;6.38;;;;;;;;;;4857088;29;20049;-86
2022/02/26 18:01:39;;;;;;;26.13;15.23;;;;;;;;;;4840267;29;20117;-85
2022/02/26 18:04:06;;;;;;;22.08;9.32;;;;;;;;;;4860510;29;20042;-86
2022/02/26 18:06:34;;;;;;;13.45;5.55;;;;;;;;;;4858952;29;20575;-84
2022/02/26 18:09:01;;;;;;;13.82;7.68;;;;;;;;;;4868240;29;20049;-85
2022/02/26 18:11:28;;;;;;;14.70;6.72;;;;;;;;;;4861762;29;20073;-87
2022/02/26 18:13:55;;;;;;;10.43;3.63;;;;;;;;;;4866820;29;20577;-88
2022/02/26 18:16:22;;;;;;;13.65;4.82;;;;;;;;;;4844124;29;20057;-88
2022/02/26 18:18:49;;;;;;;15.77;7.13;;;;;;;;;;4859472;29;20107;-88
2022/02/26 18:21:16;;;;;;;14.02;5.28;;;;;;;;;;4866927;29;20045;-87
2022/02/26 18:23:43;;;;;;;14.50;4.43;;;;;;;;;;4859667;29;20084;-84
2022/02/26 18:26:10;;;;;;;11.93;3.90;;;;;;;;;;4865300;29;20494;-85
2022/02/26 18:28:39;;;;;;;17.27;6.13;;;;;;;;;;4859976;29;20102;-84
2022/02/26 18:31:07;;;;;;;13.38;7.55;;;;;;;;;;4864249;29;20069;-84
2022/02/26 18:33:34;;;;;;;20.20;8.80;;;;;;;;;;4859521;29;20083;-84
2022/02/26 18:36:01;;;;;;;10.52;4.00;;;;;;;;;;4860187;29;20049;-85
2022/02/26 18:38:27;;;;;;;15.38;8.82;;;;;;;;;;4855593;29;20506;-85
2022/02/26 18:40:54;;;;;;;25.23;14.93;;;;;;;;;;4858630;29;20105;-85
2022/02/26 18:43:21;;;;;;;11.13;7.43;;;;;;;;;;4861936;29;20042;-86
2022/02/26 18:45:49;;;;;;;14.90;4.57;;;;;;;;;;4840995;29;20080;-86
2022/02/26 18:48:16;;;;;;;17.58;8.05;;;;;;;;;;4839906;29;20054;-85
2022/02/26 18:50:43;;;;;;;12.30;4.28;;;;;;;;;;4860529;29;20057;-87
2022/02/26 18:53:09;;;;;;;14.63;7.97;;;;;;;;;;4839554;29;20101;-84
2022/02/26 18:55:36;;;;;;;12.82;6.68;;;;;;;;;;4843103;29;20057;-84
2022/02/26 18:58:07;;;;;;;17.55;8.25;;;;;;;;;;4859083;29;22186;-85
2022/02/26 19:00:35;;;;;;;16.75;7.70;;;;;;;;;;4858007;29;20062;-85
2022/02/26 19:03:03;;;;;;;21.15;9.48;;;;;;;;;;4854787;29;20053;-84
2022/02/26 19:05:31;;;;;;;16.25;10.80;;;;;;;;;;4839850;29;20053;-86
2022/02/26 19:07:58;;;;;;;9.82;6.93;;;;;;;;;;4857574;29;20524;-87
2022/02/26 19:10:25;;;;;;;9.55;6.20;;;;;;;;;;4860919;29;20037;-86
2022/02/26 19:12:53;;;;;;;6.88;3.72;;;;;;;;;;4862468;29;20045;-85
2022/02/26 19:15:20;;;;;;;7.82;2.63;;;;;;;;;;4863675;29;20112;-86
2022/02/26 19:17:47;;;;;;;8.68;2.65;;;;;;;;;;4869766;29;20068;-85
2022/02/26 19:20:14;;;;;;;5.88;2.30;;;;;;;;;;4859412;29;20132;-86
2022/02/26 19:22:40;;;;;;;8.77;3.97;;;;;;;;;;4859332;29;20526;-86
2022/02/26 19:25:08;;;;;;;8.70;2.80;;;;;;;;;;4838436;29;20081;-88
2022/02/26 19:27:34;;;;;;;5.10;2.50;;;;;;;;;;4856580;29;20133;-86
2022/02/26 19:30:02;;;;;;;5.45;2.42;;;;;;;;;;4868855;29;20049;-86
2022/02/26 19:32:29;;;;;;;4.50;2.33;;;;;;;;;;4863048;29;20105;-87
2022/02/26 19:34:56;;;;;;;9.35;2.80;;;;;;;;;;4858503;29;20160;-86
2022/02/26 19:37:23;;;;;;;6.50;2.78;;;;;;;;;;4839321;29;20060;-85
2022/02/26 19:39:54;;;;;;;6.15;2.20;;;;;;;;;;4862797;29;20053;-87
2022/02/26 19:42:22;;;;;;;4.88;2.33;;;;;;;;;;4855275;29;20053;-87
2022/02/26 19:44:50;;;;;;;8.02;3.03;;;;;;;;;;4858173;29;20060;-87
2022/02/26 19:47:17;;;;;;;7.82;3.58;;;;;;;;;;4865075;29;20101;-86
2022/02/26 19:49:44;;;;;;;9.38;3.47;;;;;;;;;;4855127;29;20135;-85
2022/02/26 19:52:11;;;;;;;5.90;3.28;;;;;;;;;;4856685;29;20562;-86
2022/02/26 19:54:44;;;;;;;5.30;2.80;;;;;;;;;;4851895;29;20049;-88
2022/02/26 19:57:10;;;;;;;7.93;3.58;;;;;;;;;;4859047;29;20054;-86
2022/02/26 19:59:38;;;;;;;9.45;4.07;;;;;;;;;;4852840;29;20472;-88
2022/02/26 20:02:05;;;;;;;36.00;20.83;;;;;;;;;;4865779;29;20148;-86
2022/02/26 20:04:32;;;;;;;27.38;19.10;;;;;;;;;;4864374;29;20684;-87
2022/02/26 20:07:00;;;;;;;7.67;5.53;;;;;;;;;;4866479;29;20046;-86
2022/02/26 20:09:28;;;;;;;8.50;3.97;;;;;;;;;;4861022;29;20125;-85
2022/02/26 20:11:55;;;;;;;9.20;4.38;;;;;;;;;;4861111;29;20056;-88
2022/02/26 20:14:21;;;;;;;8.07;3.88;;;;;;;;;;4862356;29;20057;-87
2022/02/26 20:16:49;;;;;;;6.88;2.53;;;;;;;;;;4859405;29;20112;-87
2022/02/26 20:19:16;;;;;;;5.15;2.13;;;;;;;;;;4860716;29;20045;-86
2022/02/26 20:21:42;;;;;;;5.90;2.40;;;;;;;;;;4838593;29;20058;-88
2022/02/26 20:24:10;;;;;;;4.57;1.90;;;;;;;;;;4867937;29;20049;-86
2022/02/26 20:26:37;;;;;;;7.50;2.17;;;;;;;;;;4845976;29;20109;-88
2022/02/26 20:29:06;;;;;;;4.25;2.85;;;;;;;;;;4860170;29;20053;-87
2022/02/26 20:31:33;;;;;;;4.60;2.50;;;;;;;;;;4843259;29;20510;-88
2022/02/26 20:34:02;;;;;;;6.28;3.15;;;;;;;;;;4865494;29;20476;-88
2022/02/26 20:36:29;;;;;;;5.65;2.38;;;;;;;;;;4864873;29;20095;-88
2022/02/26 20:38:55;;;;;;;8.05;2.60;;;;;;;;;;4845693;29;20109;-87
2022/02/26 20:41:22;;;;;;;7.13;2.70;;;;;;;;;;4846523;29;20057;-89
2022/02/26 20:43:49;;;;;;;9.13;3.15;;;;;;;;;;4860081;29;20421;-88
2022/02/26 20:46:16;;;;;;;11.27;3.80;;;;;;;;;;4848318;29;20041;-87
2022/02/26 20:48:43;;;;;;;5.72;3.38;;;;;;;;;;4847129;29;20168;-87
2022/02/26 20:51:10;;;;;;;5.80;2.47;;;;;;;;;;4867155;29;20057;-86
2022/02/26 20:54:00;;;;;;;7.05;2.67;;;;;;;;;;4861006;29;20060;-85
2022/02/26 20:56:27;;;;;;;5.97;2.50;;;;;;;;;;4863489;29;20570;-85
2022/02/26 20:58:53;;;;;;;7.43;2.95;;;;;;;;;;4864836;29;20053;-84
2022/02/26 21:01:20;;;;;;;4.88;2.10;;;;;;;;;;4847058;29;20054;-85
2022/02/26 21:03:47;;;;;;;8.65;2.92;;;;;;;;;;4842654;29;20061;-84
2022/02/26 21:06:17;;;;;;;7.18;3.55;;;;;;;;;;4846337;29;20100;-84
2022/02/26 21:08:43;;;;;;;6.32;3.05;;;;;;;;;;4856492;29;20121;-84
2022/02/26 21:11:10;;;;;;;6.95;3.88;;;;;;;;;;4855865;29;20141;-85
2022/02/26 21:13:37;;;;;;;9.13;3.22;;;;;;;;;;4844977;29;20145;-86
2022/02/26 21:16:04;;;;;;;6.60;2.67;;;;;;;;;;4862581;29;20740;-84
2022/02/26 21:18:31;;;;;;;6.78;3.20;;;;;;;;;;4846565;29;20073;-84
2022/02/26 21:20:58;;;;;;;6.15;3.50;;;;;;;;;;4841525;29;20489;-84
2022/02/26 21:23:25;;;;;;;8.40;4.05;;;;;;;;;;4858940;29;20137;-85
2022/02/26 21:25:52;;;;;;;8.00;4.93;;;;;;;;;;4844111;29;20411;-83
2022/02/26 21:28:19;;;;;;;9.68;4.30;;;;;;;;;;4863274;29;20881;-85
2022/02/26 21:30:47;;;;;;;7.13;3.80;;;;;;;;;;4849381;29;20057;-84
2022/02/26 21:33:14;;;;;;;9.03;4.70;;;;;;;;;;4858524;29;20450;-84
2022/02/26 21:35:42;;;;;;;9.27;4.03;;;;;;;;;;4865426;29;20290;-84
2022/02/26 21:38:09;;;;;;;8.77;4.82;;;;;;;;;;4864049;29;20110;-86
2022/02/26 21:40:36;;;;;;;6.30;3.75;;;;;;;;;;4866301;29;20057;-85
2022/02/26 21:43:03;;;;;;;8.30;3.80;;;;;;;;;;4858694;29;20054;-85